Time;durP1;ratioP1;P1;durP2;ratioP2;P2;SDS_P1;SDS_P2;PMS_P1;PMS_P2;Temp;Humidity;BMP_temperature;BMP_pressure;BME280_temperature;BME280_humidity;BME280_pressure;Samples;Min_cycle;Max_cycle;Signal;HPM_P1;HPM_P2
2021/11/19 00:00:48;;;;;;;;;;;;;;;;;;;;;
2021/11/19 00:10:47;;;;;;;;;;;;;;;;;;;;;
2021/11/19 00:13:28;;;;;;;;;;;;;;;;;;;;;
2021/11/19 00:16:26;;;;;;;;;18.00;17.75;;;;;10.80;65.32;102966.91;6301722;22;71849;-84
2021/11/19 00:19:29;;;;;;;;;;;;;;;;;;;;;
2021/11/19 00:22:15;;;;;;;;;19.25;19.25;;;;;10.84;65.51;102973.16;6304950;22;73326;-84
2021/11/19 00:25:05;;;;;;;;;;;;;;;;;;;;;
2021/11/19 00:30:27;;;;;;;;;21.25;18.00;;;;;10.84;65.05;102958.25;6301831;22;45477;-81
2021/11/19 00:33:45;;;;;;;;;;;;;;;;;;;;;
2021/11/19 00:37:11;;;;;;;;;;;;;;;;;;;;;
2021/11/19 00:43:54;;;;;;;;;;;;;;;;;;;;;
2021/11/19 00:50:33;;;;;;;;;21.75;19.00;;;;;10.76;65.06;102943.94;6049123;23;45642;-80
2021/11/19 00:53:45;;;;;;;;;;;;;;;;;;;;;
2021/11/19 00:59:47;;;;;;;;;24.75;22.75;;;;;10.87;65.29;102960.97;6002418;23;45477;-82
2021/11/19 01:02:24;;;;;;;;;22.50;21.50;;;;;10.92;65.34;102969.03;6187054;22;45346;-82
2021/11/19 01:04:50;;;;;;;;;22.50;20.75;;;;;10.87;65.18;102966.22;6247510;22;45416;-81
2021/11/19 01:07:18;;;;;;;;;20.00;19.75;;;;;10.86;65.31;102953.91;6245157;22;45557;-81
2021/11/19 01:09:53;;;;;;;;;19.50;18.25;;;;;10.79;65.23;102938.75;6245756;22;45554;-84
2021/11/19 01:12:23;;;;;;;;;24.00;20.00;;;;;10.82;65.37;102937.13;6248386;22;45248;-84
2021/11/19 01:15:14;;;;;;;;;23.00;20.50;;;;;10.79;65.15;102926.47;6245788;22;45497;-83
2021/11/19 01:17:45;;;;;;;;;18.75;14.25;;;;;10.83;65.08;102935.38;6247408;22;46947;-84
2021/11/19 01:20:29;;;;;;;;;15.75;15.25;;;;;10.84;64.96;102937.16;6250039;22;45323;-83
2021/11/19 01:22:57;;;;;;;;;15.50;15.50;;;;;10.84;64.94;102925.72;6248198;22;45373;-84
2021/11/19 01:25:29;;;;;;;;;17.75;17.75;;;;;10.98;65.00;102950.75;6248097;22;45300;-84
2021/11/19 01:27:58;;;;;;;;;20.25;17.75;;;;;10.97;65.07;102939.31;6248064;22;45381;-84
2021/11/19 01:30:39;;;;;;;;;22.25;19.00;;;;;10.87;64.87;102921.44;6247869;22;45160;-82
2021/11/19 01:33:09;;;;;;;;;17.50;15.00;;;;;10.94;65.04;102935.72;6245755;22;45331;-83
2021/11/19 01:35:37;;;;;;;;;16.50;15.50;;;;;10.97;65.06;102933.16;6271522;22;45222;-84
2021/11/19 01:38:03;;;;;;;;;18.00;14.25;;;;;10.92;64.88;102918.94;6272151;22;46179;-83
2021/11/19 01:40:32;;;;;;;;;18.50;15.00;;;;;10.99;64.88;102931.47;6247788;22;45290;-84
2021/11/19 01:43:01;;;;;;;;;16.00;13.00;;;;;10.92;64.92;102929.50;6248514;22;45174;-83
2021/11/19 01:45:34;;;;;;;;;20.00;16.25;;;;;10.89;64.74;102922.38;6271933;22;45253;-82
2021/11/19 01:48:02;;;;;;;;;18.00;17.00;;;;;10.93;64.81;102926.91;6246070;22;47557;-83
2021/11/19 01:50:49;;;;;;;;;17.00;15.00;;;;;10.94;64.71;102925.16;6246111;22;45393;-83
2021/11/19 01:53:44;;;;;;;;;19.00;14.75;;;;;10.94;64.80;102919.91;6248371;22;45315;-83
2021/11/19 01:56:16;;;;;;;;;15.25;14.00;;;;;11.05;64.84;102934.28;6294604;22;45354;-84
2021/11/19 01:58:46;;;;;;;;;20.00;17.25;;;;;11.02;64.92;102927.16;6308023;22;48040;-83
2021/11/19 02:01:19;;;;;;;;;21.50;16.00;;;;;10.96;64.83;102920.81;6309681;22;45362;-83
2021/11/19 02:03:51;;;;;;;;;17.00;13.75;;;;;10.97;64.98;102915.59;6282617;22;45509;-83
2021/11/19 02:06:24;;;;;;;;;20.00;15.50;;;;;10.99;64.71;102919.19;6310537;22;45295;-83
2021/11/19 02:08:50;;;;;;;;;20.00;17.25;;;;;11.07;64.88;102922.03;6282319;22;47119;-83
2021/11/19 02:11:31;;;;;;;;;17.00;17.00;;;;;11.12;64.99;102936.25;6308224;22;45835;-83
2021/11/19 02:13:59;;;;;;;;;15.50;13.00;;;;;11.13;64.61;102927.47;6311880;22;45336;-83
2021/11/19 02:16:29;;;;;;;;;16.25;15.25;;;;;11.04;64.67;102903.50;6310060;22;45219;-82
2021/11/19 02:19:06;;;;;;;;;18.00;16.00;;;;;11.09;64.95;102916.78;6311579;22;45478;-82
2021/11/19 02:21:40;;;;;;;;;15.75;14.75;;;;;11.16;64.71;102929.31;6308468;22;45366;-83
2021/11/19 02:24:44;;;;;;;;;14.50;14.50;;;;;11.11;64.61;102913.34;6308188;22;45394;-84
2021/11/19 02:27:20;;;;;;;;;14.25;11.25;;;;;11.08;64.61;102910.63;6275525;22;45346;-83
2021/11/19 02:29:58;;;;;;;;;17.25;16.00;;;;;11.19;64.75;102929.41;6308188;22;47876;-82
2021/11/19 02:32:46;;;;;;;;;17.50;14.75;;;;;11.07;64.86;102903.59;6281604;22;45196;-85
2021/11/19 02:35:23;;;;;;;;;15.50;13.50;;;;;11.12;64.75;102911.59;6310292;22;45093;-85
2021/11/19 02:37:54;;;;;;;;;16.25;15.75;;;;;11.22;64.73;102932.13;6308070;22;45389;-84
2021/11/19 02:40:33;;;;;;;;;14.75;13.75;;;;;11.21;64.48;102922.44;6310143;22;45328;-83
2021/11/19 02:43:02;;;;;;;;;16.75;16.00;;;;;11.17;64.93;102918.84;6310062;22;45440;-84
2021/11/19 02:45:42;;;;;;;;;21.50;17.25;;;;;11.22;64.89;102930.38;6308168;22;45158;-84
2021/11/19 02:48:11;;;;;;;;;17.75;17.75;;;;;11.14;64.81;102910.81;6309623;22;45405;-84
2021/11/19 02:50:38;;;;;;;;;19.25;17.25;;;;;11.22;64.56;102924.22;6307882;22;47284;-84
2021/11/19 02:53:05;;;;;;;;;17.75;17.00;;;;;11.24;64.89;102930.44;6309647;22;45245;-84
2021/11/19 02:55:38;;;;;;;;;14.00;10.75;;;;;11.09;65.01;102908.88;6307590;22;46068;-85
2021/11/19 02:58:06;;;;;;;;;18.00;16.00;;;;;11.14;65.01;102917.81;6309986;22;45329;-84
2021/11/19 03:00:42;;;;;;;;;24.25;20.75;;;;;11.09;65.06;102903.63;6310150;22;45519;-85
2021/11/19 03:03:08;;;;;;;;;17.00;15.00;;;;;11.18;65.16;102925.00;6307544;22;45480;-84
2021/11/19 03:05:36;;;;;;;;;19.25;16.25;;;;;11.09;65.67;102901.88;6310117;22;45346;-85
2021/11/19 03:08:03;;;;;;;;;20.00;18.25;;;;;11.07;65.74;102906.22;6309802;22;45230;-84
2021/11/19 03:10:43;;;;;;;;;18.00;16.00;;;;;11.10;65.45;102906.31;6307810;22;47020;-84
2021/11/19 03:13:10;;;;;;;;;22.50;19.50;;;;;11.11;65.47;102907.19;6309517;22;45364;-84
2021/11/19 03:15:43;;;;;;;;;16.75;16.25;;;;;11.17;65.32;102910.94;6307650;22;45347;-85
2021/11/19 03:18:11;;;;;;;;;16.25;14.50;;;;;11.11;65.58;102900.19;6307411;22;45286;-83
2021/11/19 03:20:38;;;;;;;;;20.25;18.25;;;;;11.19;65.47;102913.59;6309753;22;45322;-84
2021/11/19 03:23:04;;;;;;;;;16.00;15.50;;;;;11.17;65.01;102910.00;6309911;22;45144;-85
2021/11/19 03:25:35;;;;;;;;;17.00;16.50;;;;;11.15;65.34;102906.44;6310885;22;45191;-85
2021/11/19 03:28:01;;;;;;;;;19.50;18.25;;;;;11.11;65.29;102884.38;6281892;22;45426;-84
2021/11/19 03:30:31;;;;;;;;;18.75;15.75;;;;;11.20;65.32;102902.19;6309793;22;45350;-85
2021/11/19 03:32:57;;;;;;;;;13.75;12.50;;;;;11.25;65.30;102908.47;6308028;22;45129;-85
2021/11/19 03:35:25;;;;;;;;;16.00;12.75;;;;;11.26;65.41;102910.28;6309804;22;45343;-85
2021/11/19 03:37:52;;;;;;;;;16.00;12.50;;;;;11.19;65.26;102896.00;6307862;22;45562;-84
2021/11/19 03:40:26;;;;;;;;;17.00;15.25;;;;;11.27;65.37;102914.69;6307588;22;47979;-84
2021/11/19 03:42:53;;;;;;;;;16.75;16.50;;;;;11.17;65.46;102891.56;6309618;22;45364;-84
2021/11/19 03:45:23;;;;;;;;;17.00;15.75;;;;;11.23;65.22;102900.53;6309956;22;45154;-84
2021/11/19 03:47:51;;;;;;;;;19.25;18.25;;;;;11.23;65.23;102892.63;6308871;22;45345;-85
2021/11/19 03:50:54;;;;;;;;;19.75;14.75;;;;;11.30;65.32;102900.69;6308361;22;46828;-84
2021/11/19 03:53:22;;;;;;;;;21.75;20.25;;;;;11.19;65.43;102890.75;6184517;23;45340;-84
2021/11/19 03:55:50;;;;;;;;;18.50;17.75;;;;;11.33;65.40;102906.94;6260534;22;45319;-84
2021/11/19 03:58:19;;;;;;;;;17.25;15.75;;;;;11.26;65.42;102900.63;6283472;22;45857;-84
2021/11/19 04:00:49;;;;;;;;;20.00;19.00;;;;;11.26;65.02;102887.44;6313999;22;45447;-84
2021/11/19 04:03:16;;;;;;;;;17.00;16.25;;;;;11.24;65.32;102881.22;6315554;22;45177;-83
2021/11/19 04:05:44;;;;;;;;;16.75;16.75;;;;;11.31;65.33;102884.94;6318316;22;45276;-85
2021/11/19 04:08:10;;;;;;;;;17.75;16.25;;;;;11.25;65.13;102876.84;6317027;22;45469;-83
2021/11/19 04:10:37;;;;;;;;;15.25;13.75;;;;;11.31;65.20;102884.94;6315396;22;46191;-84
2021/11/19 04:13:03;;;;;;;;;18.25;17.75;;;;;11.28;65.33;102887.50;6315406;22;45319;-84
2021/11/19 04:15:33;;;;;;;;;17.75;16.75;;;;;11.29;65.35;102889.28;6317244;22;45217;-85
2021/11/19 04:17:59;;;;;;;;;19.75;19.50;;;;;11.32;65.40;102892.00;6314829;22;45274;-83
2021/11/19 04:20:28;;;;;;;;;18.00;17.75;;;;;11.40;65.30;102903.63;6315776;22;45306;-85
2021/11/19 04:22:54;;;;;;;;;16.25;14.75;;;;;11.32;65.12;102881.44;6310537;22;45813;-85
2021/11/19 04:25:23;;;;;;;;;17.25;16.00;;;;;11.40;65.37;102894.84;6283008;22;45330;-84
2021/11/19 04:27:48;;;;;;;;;17.00;15.25;;;;;11.35;65.41;102889.44;6309609;22;45279;-83
2021/11/19 04:30:24;;;;;;;;;16.00;14.00;;;;;11.39;65.28;102893.97;6307241;22;48018;-84
2021/11/19 04:32:51;;;;;;;;;19.00;16.00;;;;;11.34;65.26;102897.31;6309342;22;45387;-84
2021/11/19 04:35:17;;;;;;;;;22.50;18.00;;;;;11.32;65.49;102897.25;6281361;22;45299;-83
2021/11/19 04:37:43;;;;;;;;;24.00;22.00;;;;;11.32;65.31;102899.00;6306755;22;45256;-84
2021/11/19 04:40:11;;;;;;;;;20.50;17.50;;;;;11.36;65.60;102909.69;6309143;22;46363;-84
2021/11/19 04:42:38;;;;;;;;;16.75;15.50;;;;;11.34;65.54;102903.47;6309539;22;45113;-83
2021/11/19 04:45:07;;;;;;;;;23.25;20.50;;;;;11.29;65.41;102885.75;6310960;22;45362;-84
2021/11/19 04:47:33;;;;;;;;;21.75;18.75;;;;;11.26;65.50;102890.06;6308176;22;45464;-84
2021/11/19 04:49:58;;;;;;;;;17.25;16.25;;;;;11.29;65.45;102894.53;6282224;22;46407;-83
2021/11/19 04:52:27;;;;;;;;;21.75;18.50;;;;;11.28;65.67;102884.84;6310980;22;45196;-84
2021/11/19 04:54:52;;;;;;;;;18.25;18.00;;;;;11.34;65.61;102897.31;6308643;22;45365;-84
2021/11/19 04:57:18;;;;;;;;;21.75;19.50;;;;;11.28;65.54;102887.50;6311162;22;45271;-85
2021/11/19 04:59:44;;;;;;;;;18.25;18.25;;;;;11.35;65.55;102897.34;6283274;22;48318;-84
2021/11/19 05:02:15;;;;;;;;;18.25;16.75;;;;;11.26;65.61;102882.16;6308640;22;45748;-84
2021/11/19 05:04:52;;;;;;;;;;;;;;;;;;;;;
2021/11/19 05:07:17;;;;;;;;;22.00;19.50;;;;;11.29;65.66;102880.47;6309149;22;71952;-84
2021/11/19 05:09:43;;;;;;;;;20.75;19.75;;;;;11.34;65.64;102898.22;6310613;22;46082;-84
2021/11/19 05:12:26;;;;;;;;;22.50;21.00;;;;;11.39;65.76;102899.22;6311183;22;45216;-83
2021/11/19 05:14:52;;;;;;;;;18.50;17.75;;;;;11.30;65.51;102879.59;6283333;22;45181;-84
2021/11/19 05:17:22;;;;;;;;;23.25;20.75;;;;;11.33;65.76;102877.94;6312141;22;45473;-84
2021/11/19 05:19:50;;;;;;;;;19.75;18.00;;;;;11.42;65.72;102891.41;6311783;22;46152;-84
2021/11/19 05:22:19;;;;;;;;;22.25;18.50;;;;;11.39;65.78;102880.78;6308065;22;45145;-84
2021/11/19 05:24:47;;;;;;;;;22.00;18.00;;;;;11.41;66.07;102880.78;6308290;22;45400;-84
2021/11/19 05:27:13;;;;;;;;;19.50;18.50;;;;;11.35;65.46;102872.72;6281010;22;45175;-84
2021/11/19 05:29:38;;;;;;;;;17.50;17.50;;;;;11.40;65.68;102884.28;6307595;22;45892;-84
2021/11/19 05:32:05;;;;;;;;;21.00;19.75;;;;;11.34;65.59;102868.31;6282041;22;45282;-84
2021/11/19 05:34:33;;;;;;;;;22.25;17.50;;;;;11.42;65.43;102886.13;6282665;22;45236;-84
2021/11/19 05:37:00;;;;;;;;;14.25;14.25;;;;;11.44;65.54;102878.22;6307599;22;45373;-84
2021/11/19 05:39:28;;;;;;;;;21.00;19.25;;;;;11.50;65.46;102893.38;6282102;22;47029;-84
2021/11/19 05:41:57;;;;;;;;;18.00;16.50;;;;;11.39;65.41;102869.34;6309980;22;45223;-85
2021/11/19 05:44:34;;;;;;;;;18.00;16.25;;;;;11.51;65.40;102893.38;6282084;22;45202;-85
2021/11/19 05:47:01;;;;;;;;;20.25;17.75;;;;;11.42;65.34;102872.06;6309662;22;45511;-85
2021/11/19 05:49:27;;;;;;;;;21.75;18.25;;;;;11.48;65.27;102883.63;6309826;22;45766;-85
2021/11/19 05:51:55;;;;;;;;;23.25;21.50;;;;;11.54;65.31;102895.22;6307970;22;45427;-84
2021/11/19 05:54:26;;;;;;;;;17.00;16.00;;;;;11.51;65.44;102888.09;6310667;22;45402;-84
2021/11/19 05:56:51;;;;;;;;;17.75;16.50;;;;;11.43;65.46;102885.25;6309515;22;45409;-84
2021/11/19 05:59:20;;;;;;;;;20.00;18.00;;;;;11.44;65.55;102884.44;6309723;22;45415;-85
2021/11/19 06:01:46;;;;;;;;;17.75;17.75;;;;;11.50;65.41;102896.00;6307864;22;45183;-84
2021/11/19 06:04:11;;;;;;;;;22.75;19.75;;;;;11.46;65.49;102882.69;6281736;22;45198;-84
2021/11/19 06:06:38;;;;;;;;;22.25;20.25;;;;;11.44;65.71;102881.78;6309723;22;45231;-85
2021/11/19 06:09:08;;;;;;;;;23.75;22.25;;;;;11.51;65.59;102893.38;6311127;22;45317;-84
2021/11/19 06:11:39;;;;;;;;;22.00;21.50;;;;;11.39;65.61;102885.16;6307876;22;45207;-84
2021/11/19 06:14:13;;;;;;;;;22.75;21.25;;;;;11.49;65.51;102892.44;6310349;22;45396;-84
2021/11/19 06:16:43;;;;;;;;;20.25;19.00;;;;;11.48;65.51;102898.59;6310060;22;45251;-85
2021/11/19 06:19:13;;;;;;;;;24.00;19.25;;;;;11.47;65.82;102891.53;6307310;22;47086;-85
2021/11/19 06:21:43;;;;;;;;;24.25;20.75;;;;;11.53;65.51;102907.50;6309848;22;45405;-85
2021/11/19 06:24:24;;;;;;;;;19.00;16.75;;;;;11.43;65.63;102887.91;6281641;22;45232;-85
2021/11/19 06:26:50;;;;;;;;;29.00;24.25;;;;;11.46;65.43;102895.00;6309633;22;45365;-85
2021/11/19 06:29:18;;;;;;;;;28.75;22.50;;;;;11.46;65.56;102901.16;6282321;22;46308;-85
2021/11/19 06:31:49;;;;;;;;;28.00;23.00;;;;;11.48;65.76;102901.22;6282312;22;45225;-84
2021/11/19 06:34:20;;;;;;;;;23.25;21.50;;;;;11.55;65.33;102903.19;6314794;22;45247;-85
2021/11/19 06:36:46;;;;;;;;;19.25;19.00;;;;;11.54;65.57;102890.81;6309338;22;45405;-85
2021/11/19 06:39:17;;;;;;;;;23.25;19.00;;;;;11.52;65.64;102894.28;6307458;22;47800;-85
2021/11/19 06:41:44;;;;;;;;;24.25;23.00;;;;;11.60;65.66;102916.47;6307945;22;45218;-85
2021/11/19 06:44:10;;;;;;;;;25.50;21.25;;;;;11.58;65.63;102903.25;6307936;22;45193;-85
2021/11/19 06:46:37;;;;;;;;;30.00;25.50;;;;;11.66;65.42;102919.31;6307328;22;45172;-85
2021/11/19 06:49:17;;;;;;;;;24.50;20.75;;;;;11.61;65.69;102905.09;6309597;22;45424;-85
2021/11/19 06:51:43;;;;;;;;;24.00;23.00;;;;;11.69;65.41;102924.66;6309466;22;45377;-85
2021/11/19 06:54:10;;;;;;;;;23.25;21.25;;;;;11.64;65.50;102905.16;6309896;22;45105;-85
2021/11/19 06:56:40;;;;;;;;;27.25;23.00;;;;;11.69;65.69;102911.47;6308738;22;45405;-84
2021/11/19 06:59:07;;;;;;;;;24.00;20.50;;;;;11.63;65.53;102895.47;6307687;22;47020;-83
2021/11/19 07:02:08;;;;;;;;;;;;;;;;;;;;;
2021/11/19 07:05:04;;;;;;;;;;;;;;;;;;;;;
2021/11/19 07:07:30;;;;;;;;;20.00;17.50;;;;;11.75;65.11;102923.91;6308871;22;73177;-85
2021/11/19 07:10:08;;;;;;;;;20.00;19.75;;;;;11.67;65.39;102907.88;6309244;22;45342;-84
2021/11/19 07:12:36;;;;;;;;;23.00;19.75;;;;;11.77;65.38;102935.41;6309095;22;45278;-85
2021/11/19 07:15:10;;;;;;;;;26.00;25.00;;;;;11.73;65.51;102931.78;6307653;22;45276;-85
2021/11/19 07:17:36;;;;;;;;;26.75;25.75;;;;;11.72;65.76;102932.66;6309403;22;45239;-84
2021/11/19 07:20:09;;;;;;;;;28.00;25.00;;;;;11.81;65.51;102945.19;6307320;22;48027;-85
2021/11/19 07:22:44;;;;;;;;;20.50;19.25;;;;;11.78;65.54;102939.84;6307303;22;45212;-85
2021/11/19 07:25:16;;;;;;;;;27.25;25.00;;;;;11.81;65.67;102946.06;6307740;22;45323;-84
2021/11/19 07:27:56;;;;;;;;;;;;;;;;;;;;;
2021/11/19 07:31:15;;;;;;;;;;;;;;;;;;;;;
2021/11/19 07:37:48;;;;;;;;;24.50;22.25;;;;;11.85;65.53;102955.88;6281057;22;45158;-83
2021/11/19 07:43:06;;;;;;;;;;;;;;;;;;;;;
2021/11/19 07:45:36;;;;;;;;;25.25;22.00;;;;;11.82;65.31;102961.06;6307064;22;72753;-82
2021/11/19 07:51:11;;;;;;;;;;;;;;;;;;;;;
2021/11/19 07:53:49;;;;;;;;;;;;;;;;;;;;;
2021/11/19 07:56:31;;;;;;;;;24.50;21.00;;;;;11.88;65.53;102969.19;6306214;22;72706;-83
2021/11/19 08:07:08;;;;;;;;;25.25;22.50;;;;;11.98;65.24;102980.88;5975922;23;45568;-82
2021/11/19 08:09:43;;;;;;;;;27.50;24.25;;;;;11.84;65.39;102964.66;5989277;23;45539;-81
2021/11/19 08:12:28;;;;;;;;;;;;;;;;;;;;;
2021/11/19 08:15:16;;;;;;;;;24.25;24.00;;;;;11.86;65.58;102980.56;6298319;22;71287;-81
2021/11/19 08:35:39;;;;;;;;;;;;;;;;;;;;;
2021/11/19 08:41:53;;;;;;;;;;;;;;;;;;;;;
2021/11/19 08:45:05;;;;;;;;;35.25;32.25;;;;;11.98;65.67;102988.81;6092877;23;74284;-83
2021/11/19 08:47:56;;;;;;;;;;;;;;;;;;;;;
2021/11/19 09:01:14;;;;;;;;;32.25;28.00;;;;;12.00;65.59;102976.56;6105285;23;45315;-83
2021/11/19 09:03:50;;;;;;;;;33.75;28.00;;;;;12.00;65.37;102968.63;6099429;23;45296;-84
2021/11/19 09:07:02;;;;;;;;;31.00;29.50;;;;;12.13;65.08;102983.03;6098715;23;45231;-81
2021/11/19 09:09:58;;;;;;;;;;;;;;;;;;;;;
2021/11/19 09:13:15;;;;;;;;;;;;;;;;;;;;;
2021/11/19 09:16:03;;;;;;;;;;;;;;;;;;;;;
2021/11/19 09:19:19;;;;;;;;;;;;;;;;;;;;;
2021/11/19 09:22:34;;;;;;;;;;;;;;;;;;;;;
2021/11/19 09:25:23;;;;;;;;;;;;;;;;;;;;;
2021/11/19 09:31:06;;;;;;;;;33.50;31.50;;;;;12.27;64.73;102999.22;6284601;22;45222;-81
2021/11/19 09:33:36;;;;;;;;;28.75;28.00;;;;;12.19;64.88;102985.84;6309298;22;45483;-82
2021/11/19 09:36:07;;;;;;;;;25.25;21.75;;;;;12.23;64.91;102998.25;6306753;22;45354;-81
2021/11/19 09:38:36;;;;;;;;;34.00;30.00;;;;;12.20;64.86;102987.63;6280387;22;45332;-82
2021/11/19 09:41:31;;;;;;;;;30.00;26.50;;;;;12.34;64.69;103001.16;6309565;22;45349;-82
2021/11/19 09:44:40;;;;;;;;;;;;;;;;;;;;;
2021/11/19 09:53:59;;;;;;;;;27.75;25.00;;;;;12.41;64.13;103008.41;6285970;22;45424;-82
2021/11/19 09:56:55;;;;;;;;;27.50;24.50;;;;;12.37;64.03;102998.59;6306157;22;46961;-82
2021/11/19 10:00:15;;;;;;;;;;;;;;;;;;;;;
2021/11/19 10:03:29;;;;;;;;;;;;;;;;;;;;;
2021/11/19 10:06:48;;;;;;;;;;;;;;;;;;;;;
2021/11/19 10:10:12;;;;;;;;;;;;;;;;;;;;;
2021/11/19 10:16:50;;;;;;;;;;;;;;;;;;;;;
2021/11/19 10:19:23;;;;;;;;;;;;;;;;;;;;;
2021/11/19 10:25:14;;;;;;;;;;;;;;;;;;;;;
2021/11/19 10:28:39;;;;;;;;;;;;;;;;;;;;;
2021/11/19 10:31:27;;;;;;;;;27.75;25.25;;;;;12.63;63.08;102970.19;6302861;22;72907;-81
2021/11/19 10:35:02;;;;;;;;;;;;;;;;;;;;;
2021/11/19 10:38:16;;;;;;;;;;;;;;;;;;;;;
2021/11/19 10:41:18;;;;;;;;;;;;;;;;;;;;;
2021/11/19 10:44:35;;;;;;;;;;;;;;;;;;;;;
2021/11/19 10:47:24;;;;;;;;;;;;;;;;;;;;;
2021/11/19 10:50:46;;;;;;;;;;;;;;;;;;;;;
2021/11/19 10:53:53;;;;;;;;;;;;;;;;;;;;;
2021/11/19 10:56:56;;;;;;;;;;;;;;;;;;;;;
2021/11/19 11:03:48;;;;;;;;;;;;;;;;;;;;;
2021/11/19 11:07:22;;;;;;;;;;;;;;;;;;;;;
2021/11/19 11:20:09;;;;;;;;;;;;;;;;;;;;;
2021/11/19 11:22:57;;;;;;;;;30.25;27.25;;;;;13.12;61.69;102955.41;6298324;22;72840;-81
2021/11/19 11:26:13;;;;;;;;;;;;;;;;;;;;;
2021/11/19 11:29:40;;;;;;;;;28.75;24.00;;;;;13.17;61.57;102952.88;6306283;22;72484;-81
2021/11/19 11:46:06;;;;;;;;;;;;;;;;;;;;;
2021/11/19 11:49:43;;;;;;;;;23.75;22.75;;;;;13.32;61.55;102937.38;6306873;22;71841;-81
2021/11/19 11:53:12;;;;;;;;;;;;;;;;;;;;;
2021/11/19 11:56:25;;;;;;;;;;;;;;;;;;;;;
2021/11/19 11:59:30;;;;;;;;;;;;;;;;;;;;;
2021/11/19 12:09:43;;;;;;;;;;;;;;;;;;;;;
2021/11/19 12:15:56;;;;;;;;;;;;;;;;;;;;;
2021/11/19 12:22:05;;;;;;;;;;;;;;;;;;;;;
2021/11/19 12:25:51;;;;;;;;;;;;;;;;;;;;;
2021/11/19 12:28:49;;;;;;;;;;;;;;;;;;;;;
2021/11/19 12:33:02;;;;;;;;;;;;;;;;;;;;;
2021/11/19 12:35:46;;;;;;;;;;;;;;;;;;;;;
2021/11/19 12:42:01;;;;;;;;;16.50;13.75;;;;;13.60;60.30;102895.53;6264049;22;45356;-83
2021/11/19 12:44:59;;;;;;;;;;;;;;;;;;;;;
2021/11/19 12:48:00;;;;;;;;;20.00;19.25;;;;;13.66;60.52;102898.34;6307829;22;71057;-81
2021/11/19 12:51:22;;;;;;;;;;;;;;;;;;;;;
2021/11/19 12:54:23;;;;;;;;;25.00;22.25;;;;;13.57;60.29;102872.56;6272491;22;71244;-83
2021/11/19 12:57:39;;;;;;;;;24.00;20.75;;;;;13.59;60.25;102873.50;6305229;22;45881;-82
2021/11/19 13:00:42;;;;;;;;;23.25;20.50;;;;;13.70;60.22;102884.28;6262758;22;45156;-82
2021/11/19 13:03:33;;;;;;;;;;;;;;;;;;;;;
2021/11/19 13:06:28;;;;;;;;;23.50;20.75;;;;;13.72;60.46;102879.91;6308184;22;72047;-83
2021/11/19 13:09:33;;;;;;;;;;;;;;;;;;;;;
2021/11/19 13:13:10;;;;;;;;;;;;;;;;;;;;;
2021/11/19 13:16:31;;;;;;;;;;;;;;;;;;;;;
2021/11/19 13:19:54;;;;;;;;;;;;;;;;;;;;;
2021/11/19 13:23:23;;;;;;;;;;;;;;;;;;;;;
2021/11/19 13:29:09;;;;;;;;;;;;;;;;;;;;;
2021/11/19 13:42:35;;;;;;;;;;;;;;;;;;;;;
2021/11/19 13:46:12;;;;;;;;;;;;;;;;;;;;;
2021/11/19 13:49:12;;;;;;;;;;;;;;;;;;;;;
2021/11/19 13:52:43;;;;;;;;;;;;;;;;;;;;;
2021/11/19 15:22:10;;;;;;;;;;;;;;;;;;;;;
2021/11/19 15:25:56;;;;;;;;;;;;;;;;;;;;;
2021/11/19 15:28:20;;;;;;;;;19.50;18.00;;;;;13.31;61.28;102813.91;6048044;23;45967;-80
2021/11/19 15:31:09;;;;;;;;;19.50;17.25;;;;;13.33;61.67;102816.56;6056224;23;45552;-78
2021/11/19 15:34:04;;;;;;;;;;;;;;;;;;;;;
2021/11/19 15:36:38;;;;;;;;;19.00;15.75;;;;;13.24;61.37;102823.44;6328710;22;71780;-79
2021/11/19 15:40:00;;;;;;;;;;;;;;;;;;;;;
2021/11/19 15:46:42;;;;;;;;;21.25;19.25;;;;;13.13;61.87;102822.34;6114970;23;45862;-81
2021/11/19 15:49:53;;;;;;;;;27.75;25.75;;;;;13.10;62.00;102818.75;6155183;22;45712;-83
2021/11/19 15:53:11;;;;;;;;;23.50;22.50;;;;;12.94;62.21;102794.66;6204609;22;47347;-83
2021/11/19 15:56:05;;;;;;;;;21.50;19.75;;;;;12.95;62.18;102808.75;6188473;22;45827;-83
2021/11/19 16:09:28;;;;;;;;;27.75;26.50;;;;;12.87;62.36;102811.25;6235112;22;45855;-84
2021/11/19 16:19:05;;;;;;;;;29.75;25.75;;;;;12.82;62.81;102806.72;6141977;23;45622;-92
2021/11/19 16:46:43;;;;;;;;;27.25;26.75;;;;;12.79;63.32;102807.56;6055139;23;45867;-84
2021/11/19 17:00:25;;;;;;;;;;;;;;;;;;;;;
2021/11/19 19:38:43;;;;;;;;;49.75;40.75;;;;;12.49;64.46;102790.22;5831816;24;45920;-82
